sensor_id;sensor_type;location;lat;lon;timestamp;temperature;humidity
11304;DHT22;5707;49.588;12.148;2023-12-28T00:00:26;2.60;99.90
11304;DHT22;5707;49.588;12.148;2023-12-28T00:02:52;2.60;99.90
11304;DHT22;5707;49.588;12.148;2023-12-28T00:05:18;2.70;99.90
11304;DHT22;5707;49.588;12.148;2023-12-28T00:07:43;2.70;99.90
11304;DHT22;5707;49.588;12.148;2023-12-28T00:10:09;2.80;99.90
11304;DHT22;5707;49.588;12.148;2023-12-28T00:12:35;2.80;99.90
11304;DHT22;5707;49.588;12.148;2023-12-28T00:15:00;2.90;99.90
11304;DHT22;5707;49.588;12.148;2023-12-28T00:17:26;2.90;99.90
11304;DHT22;5707;49.588;12.148;2023-12-28T00:19:52;3.00;99.90
11304;DHT22;5707;49.588;12.148;2023-12-28T00:22:17;2.70;99.90
11304;DHT22;5707;49.588;12.148;2023-12-28T00:24:43;2.60;99.90
11304;DHT22;5707;49.588;12.148;2023-12-28T00:27:08;2.70;99.90
11304;DHT22;5707;49.588;12.148;2023-12-28T00:29:34;2.70;99.90
11304;DHT22;5707;49.588;12.148;2023-12-28T00:32:06;2.70;99.90
11304;DHT22;5707;49.588;12.148;2023-12-28T00:34:32;2.60;99.90
11304;DHT22;5707;49.588;12.148;2023-12-28T00:36:57;2.60;99.90
11304;DHT22;5707;49.588;12.148;2023-12-28T00:39:23;2.60;99.90
11304;DHT22;5707;49.588;12.148;2023-12-28T00:41:49;2.50;99.90
11304;DHT22;5707;49.588;12.148;2023-12-28T00:44:14;2.50;99.90
11304;DHT22;5707;49.588;12.148;2023-12-28T00:46:40;2.50;99.90
11304;DHT22;5707;49.588;12.148;2023-12-28T00:49:05;2.50;99.90
11304;DHT22;5707;49.588;12.148;2023-12-28T00:51:31;2.30;99.90
11304;DHT22;5707;49.588;12.148;2023-12-28T00:53:56;2.40;99.90
11304;DHT22;5707;49.588;12.148;2023-12-28T00:56:22;2.40;99.90
11304;DHT22;5707;49.588;12.148;2023-12-28T00:58:48;2.20;99.90
11304;DHT22;5707;49.588;12.148;2023-12-28T01:01:13;2.20;99.90
11304;DHT22;5707;49.588;12.148;2023-12-28T01:03:39;2.20;99.90
11304;DHT22;5707;49.588;12.148;2023-12-28T01:06:05;2.10;99.90
11304;DHT22;5707;49.588;12.148;2023-12-28T01:08:31;1.90;99.90
11304;DHT22;5707;49.588;12.148;2023-12-28T01:10:56;1.80;99.90
11304;DHT22;5707;49.588;12.148;2023-12-28T01:13:22;1.80;99.90
11304;DHT22;5707;49.588;12.148;2023-12-28T01:15:47;1.70;99.90
11304;DHT22;5707;49.588;12.148;2023-12-28T01:18:13;1.80;99.90
11304;DHT22;5707;49.588;12.148;2023-12-28T01:20:38;1.80;99.90
11304;DHT22;5707;49.588;12.148;2023-12-28T01:23:04;1.90;99.90
11304;DHT22;5707;49.588;12.148;2023-12-28T01:25:29;2.00;99.90
11304;DHT22;5707;49.588;12.148;2023-12-28T01:27:55;2.10;99.90
11304;DHT22;5707;49.588;12.148;2023-12-28T01:30:20;2.20;99.90
11304;DHT22;5707;49.588;12.148;2023-12-28T01:32:46;2.20;99.90
11304;DHT22;5707;49.588;12.148;2023-12-28T01:35:11;2.20;99.90
11304;DHT22;5707;49.588;12.148;2023-12-28T01:37:37;2.00;99.90
11304;DHT22;5707;49.588;12.148;2023-12-28T01:40:03;1.90;99.90
11304;DHT22;5707;49.588;12.148;2023-12-28T01:42:29;1.90;99.90
11304;DHT22;5707;49.588;12.148;2023-12-28T01:44:56;1.90;99.90
11304;DHT22;5707;49.588;12.148;2023-12-28T01:47:23;2.00;99.90
11304;DHT22;5707;49.588;12.148;2023-12-28T01:49:49;1.80;99.90
11304;DHT22;5707;49.588;12.148;2023-12-28T01:52:15;1.80;99.90
11304;DHT22;5707;49.588;12.148;2023-12-28T01:54:40;1.90;99.90
11304;DHT22;5707;49.588;12.148;2023-12-28T01:57:06;1.90;99.90
11304;DHT22;5707;49.588;12.148;2023-12-28T01:59:32;1.80;99.90
11304;DHT22;5707;49.588;12.148;2023-12-28T02:01:58;1.90;99.90
11304;DHT22;5707;49.588;12.148;2023-12-28T02:04:24;2.00;99.90
11304;DHT22;5707;49.588;12.148;2023-12-28T02:06:57;2.10;99.90
11304;DHT22;5707;49.588;12.148;2023-12-28T02:09:23;2.10;99.90
11304;DHT22;5707;49.588;12.148;2023-12-28T02:11:48;2.20;99.90
11304;DHT22;5707;49.588;12.148;2023-12-28T02:14:14;2.40;99.90
11304;DHT22;5707;49.588;12.148;2023-12-28T02:16:46;2.50;99.90
11304;DHT22;5707;49.588;12.148;2023-12-28T02:19:40;2.50;99.90
11304;DHT22;5707;49.588;12.148;2023-12-28T02:22:08;2.50;99.90
11304;DHT22;5707;49.588;12.148;2023-12-28T02:27:28;2.60;99.90
11304;DHT22;5707;49.588;12.148;2023-12-28T02:29:55;2.50;99.90
11304;DHT22;5707;49.588;12.148;2023-12-28T02:32:25;2.50;99.90
11304;DHT22;5707;49.588;12.148;2023-12-28T02:34:58;2.50;99.90
11304;DHT22;5707;49.588;12.148;2023-12-28T02:37:25;2.50;99.90
11304;DHT22;5707;49.588;12.148;2023-12-28T02:39:51;2.50;99.90
11304;DHT22;5707;49.588;12.148;2023-12-28T02:42:18;2.50;99.90
11304;DHT22;5707;49.588;12.148;2023-12-28T02:44:44;2.50;99.90
11304;DHT22;5707;49.588;12.148;2023-12-28T02:47:10;2.50;99.90
11304;DHT22;5707;49.588;12.148;2023-12-28T02:49:35;2.40;99.90
11304;DHT22;5707;49.588;12.148;2023-12-28T02:52:01;2.50;99.90
11304;DHT22;5707;49.588;12.148;2023-12-28T02:54:26;2.40;99.90
11304;DHT22;5707;49.588;12.148;2023-12-28T02:56:52;2.40;99.90
11304;DHT22;5707;49.588;12.148;2023-12-28T02:59:17;2.40;99.90
11304;DHT22;5707;49.588;12.148;2023-12-28T03:01:43;2.40;99.90
11304;DHT22;5707;49.588;12.148;2023-12-28T03:04:09;2.40;99.90
11304;DHT22;5707;49.588;12.148;2023-12-28T03:06:34;2.50;99.90
11304;DHT22;5707;49.588;12.148;2023-12-28T03:09:01;2.50;99.90
11304;DHT22;5707;49.588;12.148;2023-12-28T03:11:26;2.50;99.90
11304;DHT22;5707;49.588;12.148;2023-12-28T03:13:52;2.40;99.90
11304;DHT22;5707;49.588;12.148;2023-12-28T03:16:17;2.30;99.90
11304;DHT22;5707;49.588;12.148;2023-12-28T03:18:43;2.30;99.90
11304;DHT22;5707;49.588;12.148;2023-12-28T03:21:08;2.40;99.90
11304;DHT22;5707;49.588;12.148;2023-12-28T03:23:34;2.30;99.90
11304;DHT22;5707;49.588;12.148;2023-12-28T03:26:01;2.30;99.90
11304;DHT22;5707;49.588;12.148;2023-12-28T03:28:26;2.20;99.90
11304;DHT22;5707;49.588;12.148;2023-12-28T03:30:52;2.20;99.90
11304;DHT22;5707;49.588;12.148;2023-12-28T03:33:17;2.30;99.90
11304;DHT22;5707;49.588;12.148;2023-12-28T03:35:43;2.30;99.90
11304;DHT22;5707;49.588;12.148;2023-12-28T03:38:08;2.20;99.90
11304;DHT22;5707;49.588;12.148;2023-12-28T03:40:34;2.20;99.90
11304;DHT22;5707;49.588;12.148;2023-12-28T03:42:59;2.10;99.90
11304;DHT22;5707;49.588;12.148;2023-12-28T03:45:25;2.00;99.90
11304;DHT22;5707;49.588;12.148;2023-12-28T03:47:50;2.00;99.90
11304;DHT22;5707;49.588;12.148;2023-12-28T03:50:16;2.10;99.90
11304;DHT22;5707;49.588;12.148;2023-12-28T03:52:42;2.10;99.90
11304;DHT22;5707;49.588;12.148;2023-12-28T03:55:08;2.10;99.90
11304;DHT22;5707;49.588;12.148;2023-12-28T03:57:33;2.10;99.90
11304;DHT22;5707;49.588;12.148;2023-12-28T03:59:59;2.10;99.90
11304;DHT22;5707;49.588;12.148;2023-12-28T04:02:24;2.10;99.90
11304;DHT22;5707;49.588;12.148;2023-12-28T04:04:52;2.10;99.90
11304;DHT22;5707;49.588;12.148;2023-12-28T04:07:18;2.10;99.90
11304;DHT22;5707;49.588;12.148;2023-12-28T04:09:44;2.10;99.90
11304;DHT22;5707;49.588;12.148;2023-12-28T04:12:09;2.10;99.90
11304;DHT22;5707;49.588;12.148;2023-12-28T04:14:35;2.00;99.90
11304;DHT22;5707;49.588;12.148;2023-12-28T04:17:00;2.10;99.90
11304;DHT22;5707;49.588;12.148;2023-12-28T04:19:26;2.10;99.90
11304;DHT22;5707;49.588;12.148;2023-12-28T04:21:52;2.20;99.90
11304;DHT22;5707;49.588;12.148;2023-12-28T04:24:17;2.20;99.90
11304;DHT22;5707;49.588;12.148;2023-12-28T04:26:43;2.20;99.90
11304;DHT22;5707;49.588;12.148;2023-12-28T04:29:08;2.30;99.90
11304;DHT22;5707;49.588;12.148;2023-12-28T04:31:39;2.50;99.90
11304;DHT22;5707;49.588;12.148;2023-12-28T04:34:05;2.80;99.90
11304;DHT22;5707;49.588;12.148;2023-12-28T04:36:31;3.00;99.90
11304;DHT22;5707;49.588;12.148;2023-12-28T04:38:56;3.00;99.90
11304;DHT22;5707;49.588;12.148;2023-12-28T04:41:22;2.80;99.90
11304;DHT22;5707;49.588;12.148;2023-12-28T04:43:47;2.60;99.90
11304;DHT22;5707;49.588;12.148;2023-12-28T04:46:13;2.50;99.90
11304;DHT22;5707;49.588;12.148;2023-12-28T04:48:38;2.40;99.90
11304;DHT22;5707;49.588;12.148;2023-12-28T04:51:04;2.30;99.90
11304;DHT22;5707;49.588;12.148;2023-12-28T04:53:30;2.20;99.90
11304;DHT22;5707;49.588;12.148;2023-12-28T04:55:55;2.00;99.90
11304;DHT22;5707;49.588;12.148;2023-12-28T04:58:21;2.00;99.90
11304;DHT22;5707;49.588;12.148;2023-12-28T05:00:46;2.00;99.90
11304;DHT22;5707;49.588;12.148;2023-12-28T05:03:12;1.90;99.90
11304;DHT22;5707;49.588;12.148;2023-12-28T05:05:37;1.90;99.90
11304;DHT22;5707;49.588;12.148;2023-12-28T05:08:04;2.00;99.90
11304;DHT22;5707;49.588;12.148;2023-12-28T05:10:29;2.10;99.90
11304;DHT22;5707;49.588;12.148;2023-12-28T05:12:55;2.10;99.90
11304;DHT22;5707;49.588;12.148;2023-12-28T05:15:20;2.20;99.90
11304;DHT22;5707;49.588;12.148;2023-12-28T05:17:46;2.10;99.90
11304;DHT22;5707;49.588;12.148;2023-12-28T05:20:11;2.10;99.90
11304;DHT22;5707;49.588;12.148;2023-12-28T05:22:37;2.20;99.90
11304;DHT22;5707;49.588;12.148;2023-12-28T05:25:03;2.30;99.90
11304;DHT22;5707;49.588;12.148;2023-12-28T05:27:28;2.60;99.90
11304;DHT22;5707;49.588;12.148;2023-12-28T05:29:54;2.90;99.90
11304;DHT22;5707;49.588;12.148;2023-12-28T05:32:20;3.10;99.90
11304;DHT22;5707;49.588;12.148;2023-12-28T05:34:45;3.20;99.90
11304;DHT22;5707;49.588;12.148;2023-12-28T05:37:11;3.30;99.90
11304;DHT22;5707;49.588;12.148;2023-12-28T05:39:36;3.40;99.90
11304;DHT22;5707;49.588;12.148;2023-12-28T05:42:02;3.40;99.90
11304;DHT22;5707;49.588;12.148;2023-12-28T05:44:27;3.40;99.90
11304;DHT22;5707;49.588;12.148;2023-12-28T05:46:53;3.50;99.90
11304;DHT22;5707;49.588;12.148;2023-12-28T05:49:19;3.50;99.90
11304;DHT22;5707;49.588;12.148;2023-12-28T05:51:44;3.50;99.90
11304;DHT22;5707;49.588;12.148;2023-12-28T05:54:10;3.60;99.90
11304;DHT22;5707;49.588;12.148;2023-12-28T05:56:36;3.70;99.90
11304;DHT22;5707;49.588;12.148;2023-12-28T05:59:01;3.70;99.90
11304;DHT22;5707;49.588;12.148;2023-12-28T06:01:27;3.70;99.90
11304;DHT22;5707;49.588;12.148;2023-12-28T06:03:53;3.80;99.90
11304;DHT22;5707;49.588;12.148;2023-12-28T06:06:19;3.80;99.90
11304;DHT22;5707;49.588;12.148;2023-12-28T06:08:46;3.90;99.90
11304;DHT22;5707;49.588;12.148;2023-12-28T06:11:12;3.90;99.90
11304;DHT22;5707;49.588;12.148;2023-12-28T06:13:37;3.90;99.90
11304;DHT22;5707;49.588;12.148;2023-12-28T06:16:03;3.90;99.90
11304;DHT22;5707;49.588;12.148;2023-12-28T06:18:29;3.90;99.90
11304;DHT22;5707;49.588;12.148;2023-12-28T06:20:54;4.00;99.90
11304;DHT22;5707;49.588;12.148;2023-12-28T06:23:20;4.00;99.90
11304;DHT22;5707;49.588;12.148;2023-12-28T06:25:46;4.00;99.90
11304;DHT22;5707;49.588;12.148;2023-12-28T06:28:11;4.10;99.90
11304;DHT22;5707;49.588;12.148;2023-12-28T06:30:37;4.10;99.90
11304;DHT22;5707;49.588;12.148;2023-12-28T06:33:03;4.10;99.90
11304;DHT22;5707;49.588;12.148;2023-12-28T06:35:28;4.10;99.90
11304;DHT22;5707;49.588;12.148;2023-12-28T06:37:54;4.10;99.90
11304;DHT22;5707;49.588;12.148;2023-12-28T06:40:19;4.20;99.90
11304;DHT22;5707;49.588;12.148;2023-12-28T06:42:45;4.20;99.90
11304;DHT22;5707;49.588;12.148;2023-12-28T06:45:10;4.20;99.90
11304;DHT22;5707;49.588;12.148;2023-12-28T06:47:36;4.20;99.90
11304;DHT22;5707;49.588;12.148;2023-12-28T06:50:02;4.20;99.90
11304;DHT22;5707;49.588;12.148;2023-12-28T06:52:27;4.30;99.90
11304;DHT22;5707;49.588;12.148;2023-12-28T06:54:54;4.30;99.90
11304;DHT22;5707;49.588;12.148;2023-12-28T06:57:19;4.30;99.90
11304;DHT22;5707;49.588;12.148;2023-12-28T06:59:45;4.40;99.90
11304;DHT22;5707;49.588;12.148;2023-12-28T07:02:10;4.40;99.90
11304;DHT22;5707;49.588;12.148;2023-12-28T07:04:36;4.50;99.90
11304;DHT22;5707;49.588;12.148;2023-12-28T07:07:02;4.50;99.90
11304;DHT22;5707;49.588;12.148;2023-12-28T07:09:27;4.60;99.90
11304;DHT22;5707;49.588;12.148;2023-12-28T07:11:53;4.70;99.90
11304;DHT22;5707;49.588;12.148;2023-12-28T07:14:18;4.70;99.90
11304;DHT22;5707;49.588;12.148;2023-12-28T07:16:44;4.70;99.90
11304;DHT22;5707;49.588;12.148;2023-12-28T07:19:10;4.80;99.90
11304;DHT22;5707;49.588;12.148;2023-12-28T07:21:36;4.80;99.90
11304;DHT22;5707;49.588;12.148;2023-12-28T07:24:02;4.90;99.90
11304;DHT22;5707;49.588;12.148;2023-12-28T07:26:27;4.90;99.90
11304;DHT22;5707;49.588;12.148;2023-12-28T07:28:53;4.90;99.90
11304;DHT22;5707;49.588;12.148;2023-12-28T07:31:27;5.00;99.90
11304;DHT22;5707;49.588;12.148;2023-12-28T07:33:53;5.00;99.90
11304;DHT22;5707;49.588;12.148;2023-12-28T07:36:19;5.00;99.90
11304;DHT22;5707;49.588;12.148;2023-12-28T07:38:45;5.10;99.90
11304;DHT22;5707;49.588;12.148;2023-12-28T07:41:11;5.10;99.90
11304;DHT22;5707;49.588;12.148;2023-12-28T07:43:36;5.20;99.90
11304;DHT22;5707;49.588;12.148;2023-12-28T07:46:02;5.20;99.90
11304;DHT22;5707;49.588;12.148;2023-12-28T07:48:28;5.20;99.90
11304;DHT22;5707;49.588;12.148;2023-12-28T07:50:57;5.20;99.90
11304;DHT22;5707;49.588;12.148;2023-12-28T07:53:23;5.30;99.90
11304;DHT22;5707;49.588;12.148;2023-12-28T07:55:48;5.30;99.90
11304;DHT22;5707;49.588;12.148;2023-12-28T07:58:15;5.40;99.90
11304;DHT22;5707;49.588;12.148;2023-12-28T08:00:40;5.40;99.90
11304;DHT22;5707;49.588;12.148;2023-12-28T08:03:06;5.40;99.90
11304;DHT22;5707;49.588;12.148;2023-12-28T08:05:31;5.40;99.90
11304;DHT22;5707;49.588;12.148;2023-12-28T08:07:57;5.40;99.90
11304;DHT22;5707;49.588;12.148;2023-12-28T08:10:22;5.30;99.90
11304;DHT22;5707;49.588;12.148;2023-12-28T08:12:48;5.30;99.90
11304;DHT22;5707;49.588;12.148;2023-12-28T08:15:14;5.40;99.90
11304;DHT22;5707;49.588;12.148;2023-12-28T08:17:39;5.40;99.90
11304;DHT22;5707;49.588;12.148;2023-12-28T08:20:06;5.50;99.90
11304;DHT22;5707;49.588;12.148;2023-12-28T08:22:32;5.50;99.90
11304;DHT22;5707;49.588;12.148;2023-12-28T08:24:57;5.50;99.90
11304;DHT22;5707;49.588;12.148;2023-12-28T08:27:23;5.60;99.90
11304;DHT22;5707;49.588;12.148;2023-12-28T08:29:49;5.60;99.90
11304;DHT22;5707;49.588;12.148;2023-12-28T08:32:14;5.70;99.90
11304;DHT22;5707;49.588;12.148;2023-12-28T08:34:40;5.70;99.90
11304;DHT22;5707;49.588;12.148;2023-12-28T08:37:06;5.70;99.90
11304;DHT22;5707;49.588;12.148;2023-12-28T08:39:31;5.80;99.90
11304;DHT22;5707;49.588;12.148;2023-12-28T08:41:57;5.90;99.90
11304;DHT22;5707;49.588;12.148;2023-12-28T08:44:23;5.90;99.90
11304;DHT22;5707;49.588;12.148;2023-12-28T08:46:48;5.90;99.90
11304;DHT22;5707;49.588;12.148;2023-12-28T08:49:14;5.90;99.90
11304;DHT22;5707;49.588;12.148;2023-12-28T08:51:41;5.80;99.90
11304;DHT22;5707;49.588;12.148;2023-12-28T08:54:07;5.90;99.90
11304;DHT22;5707;49.588;12.148;2023-12-28T08:56:33;5.90;99.90
11304;DHT22;5707;49.588;12.148;2023-12-28T08:58:59;6.00;99.90
11304;DHT22;5707;49.588;12.148;2023-12-28T09:01:24;6.10;99.90
11304;DHT22;5707;49.588;12.148;2023-12-28T09:03:57;6.10;99.90
11304;DHT22;5707;49.588;12.148;2023-12-28T09:06:23;6.10;99.90
11304;DHT22;5707;49.588;12.148;2023-12-28T09:08:50;6.10;99.90
11304;DHT22;5707;49.588;12.148;2023-12-28T09:11:17;6.20;99.90
11304;DHT22;5707;49.588;12.148;2023-12-28T09:13:42;6.20;99.90
11304;DHT22;5707;49.588;12.148;2023-12-28T09:16:10;6.30;99.90
11304;DHT22;5707;49.588;12.148;2023-12-28T09:18:36;6.30;99.90
11304;DHT22;5707;49.588;12.148;2023-12-28T09:21:08;6.40;99.90
11304;DHT22;5707;49.588;12.148;2023-12-28T09:23:35;6.40;99.90
11304;DHT22;5707;49.588;12.148;2023-12-28T09:26:02;6.40;99.90
11304;DHT22;5707;49.588;12.148;2023-12-28T09:28:29;6.40;99.90
11304;DHT22;5707;49.588;12.148;2023-12-28T09:30:54;6.50;99.90
11304;DHT22;5707;49.588;12.148;2023-12-28T09:33:20;6.50;99.90
11304;DHT22;5707;49.588;12.148;2023-12-28T09:35:46;6.60;99.90
11304;DHT22;5707;49.588;12.148;2023-12-28T09:38:13;6.60;99.90
11304;DHT22;5707;49.588;12.148;2023-12-28T09:40:41;6.60;99.90
11304;DHT22;5707;49.588;12.148;2023-12-28T09:43:19;6.60;99.90
11304;DHT22;5707;49.588;12.148;2023-12-28T09:45:47;6.60;99.90
11304;DHT22;5707;49.588;12.148;2023-12-28T09:48:17;6.60;99.90
11304;DHT22;5707;49.588;12.148;2023-12-28T09:50:53;6.70;99.90
11304;DHT22;5707;49.588;12.148;2023-12-28T09:53:23;6.70;99.90
11304;DHT22;5707;49.588;12.148;2023-12-28T09:55:49;6.70;99.90
11304;DHT22;5707;49.588;12.148;2023-12-28T09:58:17;6.80;99.90
11304;DHT22;5707;49.588;12.148;2023-12-28T10:00:44;6.80;99.90
11304;DHT22;5707;49.588;12.148;2023-12-28T10:03:12;6.80;99.90
11304;DHT22;5707;49.588;12.148;2023-12-28T10:05:40;6.80;99.90
11304;DHT22;5707;49.588;12.148;2023-12-28T10:08:05;6.80;99.90
11304;DHT22;5707;49.588;12.148;2023-12-28T10:10:32;6.80;99.90
11304;DHT22;5707;49.588;12.148;2023-12-28T10:12:58;6.90;99.90
11304;DHT22;5707;49.588;12.148;2023-12-28T10:15:23;6.90;99.90
11304;DHT22;5707;49.588;12.148;2023-12-28T10:17:54;6.90;99.90
11304;DHT22;5707;49.588;12.148;2023-12-28T10:20:20;6.90;99.90
11304;DHT22;5707;49.588;12.148;2023-12-28T10:22:46;6.90;99.90
11304;DHT22;5707;49.588;12.148;2023-12-28T10:25:12;6.90;99.90
11304;DHT22;5707;49.588;12.148;2023-12-28T10:27:41;7.00;99.90
11304;DHT22;5707;49.588;12.148;2023-12-28T10:30:08;7.00;99.90
11304;DHT22;5707;49.588;12.148;2023-12-28T10:32:34;7.10;99.90
11304;DHT22;5707;49.588;12.148;2023-12-28T10:34:59;7.20;99.90
11304;DHT22;5707;49.588;12.148;2023-12-28T10:37:26;7.20;99.90
11304;DHT22;5707;49.588;12.148;2023-12-28T10:39:54;7.30;99.90
11304;DHT22;5707;49.588;12.148;2023-12-28T10:42:31;7.30;99.90
11304;DHT22;5707;49.588;12.148;2023-12-28T10:45:04;7.20;99.90
11304;DHT22;5707;49.588;12.148;2023-12-28T10:47:37;7.10;99.90
11304;DHT22;5707;49.588;12.148;2023-12-28T10:50:04;7.20;99.90
11304;DHT22;5707;49.588;12.148;2023-12-28T10:52:33;7.20;99.90
11304;DHT22;5707;49.588;12.148;2023-12-28T10:57:40;7.30;99.90
11304;DHT22;5707;49.588;12.148;2023-12-28T11:00:19;7.30;99.90
11304;DHT22;5707;49.588;12.148;2023-12-28T11:02:47;7.30;99.90
11304;DHT22;5707;49.588;12.148;2023-12-28T11:05:15;7.30;99.90
11304;DHT22;5707;49.588;12.148;2023-12-28T11:07:41;7.40;99.90
11304;DHT22;5707;49.588;12.148;2023-12-28T11:10:08;7.50;99.90
11304;DHT22;5707;49.588;12.148;2023-12-28T11:12:35;7.60;99.90
11304;DHT22;5707;49.588;12.148;2023-12-28T11:15:03;7.70;99.90
11304;DHT22;5707;49.588;12.148;2023-12-28T11:17:31;7.80;99.90
11304;DHT22;5707;49.588;12.148;2023-12-28T11:19:57;7.90;99.90
11304;DHT22;5707;49.588;12.148;2023-12-28T11:22:24;7.90;99.90
11304;DHT22;5707;49.588;12.148;2023-12-28T11:24:52;7.90;99.90
11304;DHT22;5707;49.588;12.148;2023-12-28T11:27:18;7.90;99.90
11304;DHT22;5707;49.588;12.148;2023-12-28T11:29:44;7.90;99.90
11304;DHT22;5707;49.588;12.148;2023-12-28T11:32:10;8.00;99.90
11304;DHT22;5707;49.588;12.148;2023-12-28T11:34:36;8.00;99.90
11304;DHT22;5707;49.588;12.148;2023-12-28T11:37:07;8.00;99.90
11304;DHT22;5707;49.588;12.148;2023-12-28T11:39:35;8.10;99.90
11304;DHT22;5707;49.588;12.148;2023-12-28T11:42:03;8.10;99.90
11304;DHT22;5707;49.588;12.148;2023-12-28T11:44:30;8.10;99.90
11304;DHT22;5707;49.588;12.148;2023-12-28T11:46:56;8.20;99.90
11304;DHT22;5707;49.588;12.148;2023-12-28T11:49:25;8.20;99.90
11304;DHT22;5707;49.588;12.148;2023-12-28T11:51:58;8.20;99.90
11304;DHT22;5707;49.588;12.148;2023-12-28T11:54:25;8.10;99.90
11304;DHT22;5707;49.588;12.148;2023-12-28T11:56:51;8.20;99.90
11304;DHT22;5707;49.588;12.148;2023-12-28T11:59:18;8.20;99.90
11304;DHT22;5707;49.588;12.148;2023-12-28T12:01:49;8.30;99.90
11304;DHT22;5707;49.588;12.148;2023-12-28T12:04:15;8.30;99.90
11304;DHT22;5707;49.588;12.148;2023-12-28T12:06:41;8.30;99.90
11304;DHT22;5707;49.588;12.148;2023-12-28T12:09:06;8.30;99.90
11304;DHT22;5707;49.588;12.148;2023-12-28T12:11:32;8.30;99.90
11304;DHT22;5707;49.588;12.148;2023-12-28T12:13:58;8.30;99.90
11304;DHT22;5707;49.588;12.148;2023-12-28T12:16:23;8.30;99.90
11304;DHT22;5707;49.588;12.148;2023-12-28T12:18:49;8.20;99.90
11304;DHT22;5707;49.588;12.148;2023-12-28T12:21:14;8.30;99.90
11304;DHT22;5707;49.588;12.148;2023-12-28T12:23:40;8.30;99.90
11304;DHT22;5707;49.588;12.148;2023-12-28T12:26:06;8.20;99.90
11304;DHT22;5707;49.588;12.148;2023-12-28T12:28:32;8.10;99.90
11304;DHT22;5707;49.588;12.148;2023-12-28T12:30:59;8.10;99.90
11304;DHT22;5707;49.588;12.148;2023-12-28T12:33:27;8.00;99.90
11304;DHT22;5707;49.588;12.148;2023-12-28T12:35:53;7.90;99.90
11304;DHT22;5707;49.588;12.148;2023-12-28T12:38:19;7.90;99.90
11304;DHT22;5707;49.588;12.148;2023-12-28T12:40:44;7.80;99.90
11304;DHT22;5707;49.588;12.148;2023-12-28T12:43:10;7.80;99.90
11304;DHT22;5707;49.588;12.148;2023-12-28T12:45:36;7.70;99.90
11304;DHT22;5707;49.588;12.148;2023-12-28T12:48:03;7.70;99.90
11304;DHT22;5707;49.588;12.148;2023-12-28T12:50:31;7.80;99.90
11304;DHT22;5707;49.588;12.148;2023-12-28T12:52:59;7.80;99.90
11304;DHT22;5707;49.588;12.148;2023-12-28T12:55:25;7.80;99.90
11304;DHT22;5707;49.588;12.148;2023-12-28T12:57:50;7.80;99.90
11304;DHT22;5707;49.588;12.148;2023-12-28T13:00:17;7.80;99.90
11304;DHT22;5707;49.588;12.148;2023-12-28T13:02:43;7.70;99.90
11304;DHT22;5707;49.588;12.148;2023-12-28T13:05:11;7.70;99.90
11304;DHT22;5707;49.588;12.148;2023-12-28T13:07:37;7.60;99.90
11304;DHT22;5707;49.588;12.148;2023-12-28T13:10:02;7.60;99.90
11304;DHT22;5707;49.588;12.148;2023-12-28T13:12:28;7.60;99.90
11304;DHT22;5707;49.588;12.148;2023-12-28T13:14:54;7.60;99.90
11304;DHT22;5707;49.588;12.148;2023-12-28T13:17:19;7.60;99.90
11304;DHT22;5707;49.588;12.148;2023-12-28T13:19:45;7.60;99.90
11304;DHT22;5707;49.588;12.148;2023-12-28T13:22:10;7.50;99.90
11304;DHT22;5707;49.588;12.148;2023-12-28T13:24:36;7.50;99.90
11304;DHT22;5707;49.588;12.148;2023-12-28T13:27:02;7.40;99.90
11304;DHT22;5707;49.588;12.148;2023-12-28T13:29:28;7.40;99.90
11304;DHT22;5707;49.588;12.148;2023-12-28T13:31:55;7.40;99.90
11304;DHT22;5707;49.588;12.148;2023-12-28T13:34:20;7.40;99.90
11304;DHT22;5707;49.588;12.148;2023-12-28T13:36:46;7.40;99.90
11304;DHT22;5707;49.588;12.148;2023-12-28T13:39:12;7.30;99.90
11304;DHT22;5707;49.588;12.148;2023-12-28T13:41:40;7.20;99.90
11304;DHT22;5707;49.588;12.148;2023-12-28T13:44:06;7.10;99.90
11304;DHT22;5707;49.588;12.148;2023-12-28T13:46:38;7.10;99.90
11304;DHT22;5707;49.588;12.148;2023-12-28T13:49:03;7.10;99.90
11304;DHT22;5707;49.588;12.148;2023-12-28T13:51:32;7.00;99.90
11304;DHT22;5707;49.588;12.148;2023-12-28T13:53:57;7.00;99.90
11304;DHT22;5707;49.588;12.148;2023-12-28T13:56:23;7.00;99.90
11304;DHT22;5707;49.588;12.148;2023-12-28T13:58:49;6.90;99.90
11304;DHT22;5707;49.588;12.148;2023-12-28T14:01:15;6.90;99.90
11304;DHT22;5707;49.588;12.148;2023-12-28T14:03:40;6.90;99.90
11304;DHT22;5707;49.588;12.148;2023-12-28T14:06:06;6.90;99.90
11304;DHT22;5707;49.588;12.148;2023-12-28T14:08:32;6.90;99.90
11304;DHT22;5707;49.588;12.148;2023-12-28T14:10:57;6.90;99.90
11304;DHT22;5707;49.588;12.148;2023-12-28T14:13:23;6.90;99.90
11304;DHT22;5707;49.588;12.148;2023-12-28T14:15:49;6.90;99.90
11304;DHT22;5707;49.588;12.148;2023-12-28T14:18:14;6.90;99.90
11304;DHT22;5707;49.588;12.148;2023-12-28T14:20:40;6.80;99.90
11304;DHT22;5707;49.588;12.148;2023-12-28T14:23:05;6.80;99.90
11304;DHT22;5707;49.588;12.148;2023-12-28T14:25:31;6.80;99.90
11304;DHT22;5707;49.588;12.148;2023-12-28T14:27:57;6.80;99.90
11304;DHT22;5707;49.588;12.148;2023-12-28T14:30:23;6.80;99.90
11304;DHT22;5707;49.588;12.148;2023-12-28T14:32:49;6.70;99.90
11304;DHT22;5707;49.588;12.148;2023-12-28T14:35:15;6.70;99.90
11304;DHT22;5707;49.588;12.148;2023-12-28T14:37:45;6.70;99.90
11304;DHT22;5707;49.588;12.148;2023-12-28T14:40:11;6.60;99.90
11304;DHT22;5707;49.588;12.148;2023-12-28T14:42:37;6.60;99.90
11304;DHT22;5707;49.588;12.148;2023-12-28T14:45:04;6.60;99.90
11304;DHT22;5707;49.588;12.148;2023-12-28T14:47:29;6.60;99.90
11304;DHT22;5707;49.588;12.148;2023-12-28T14:49:55;6.60;99.90
11304;DHT22;5707;49.588;12.148;2023-12-28T14:52:23;6.60;99.90
11304;DHT22;5707;49.588;12.148;2023-12-28T14:54:49;6.60;99.90
11304;DHT22;5707;49.588;12.148;2023-12-28T14:57:22;6.50;99.90
11304;DHT22;5707;49.588;12.148;2023-12-28T14:59:47;6.50;99.90
11304;DHT22;5707;49.588;12.148;2023-12-28T15:02:13;6.50;99.90
11304;DHT22;5707;49.588;12.148;2023-12-28T15:04:38;6.40;99.90
11304;DHT22;5707;49.588;12.148;2023-12-28T15:07:06;6.40;99.90
11304;DHT22;5707;49.588;12.148;2023-12-28T15:09:31;6.40;99.90
11304;DHT22;5707;49.588;12.148;2023-12-28T15:11:57;6.40;99.90
11304;DHT22;5707;49.588;12.148;2023-12-28T15:14:24;6.40;99.90
11304;DHT22;5707;49.588;12.148;2023-12-28T15:16:51;6.40;99.90
11304;DHT22;5707;49.588;12.148;2023-12-28T15:19:16;6.30;99.90
11304;DHT22;5707;49.588;12.148;2023-12-28T15:21:42;6.30;99.90
11304;DHT22;5707;49.588;12.148;2023-12-28T15:24:08;6.30;99.90
11304;DHT22;5707;49.588;12.148;2023-12-28T15:26:34;6.30;99.90
11304;DHT22;5707;49.588;12.148;2023-12-28T15:29:00;6.30;99.90
11304;DHT22;5707;49.588;12.148;2023-12-28T15:31:25;6.30;99.90
11304;DHT22;5707;49.588;12.148;2023-12-28T15:33:51;6.30;99.90
11304;DHT22;5707;49.588;12.148;2023-12-28T15:36:16;6.30;99.90
11304;DHT22;5707;49.588;12.148;2023-12-28T15:38:43;6.30;99.90
11304;DHT22;5707;49.588;12.148;2023-12-28T15:41:09;6.30;99.90
11304;DHT22;5707;49.588;12.148;2023-12-28T15:43:34;6.30;99.90